Time;durP1;ratioP1;P1;durP2;ratioP2;P2;SDS_P1;SDS_P2;PMS_P1;PMS_P2;Temp;Humidity;BMP_temperature;BMP_pressure;BME280_temperature;BME280_humidity;BME280_pressure;Samples;Min_cycle;Max_cycle;Signal;HPM_P1;HPM_P2
2021/05/12 00:01:25;;;;;;;14.23;4.90;;;;;;;9.78;89.45;100326.56;5073467;28;20115;-65
2021/05/12 00:03:50;;;;;;;9.33;5.00;;;;;;;9.74;89.22;100320.75;5074388;28;20071;-65
2021/05/12 00:06:15;;;;;;;8.83;4.60;;;;;;;9.74;89.66;100320.75;5073536;28;20074;-65
2021/05/12 00:08:41;;;;;;;9.97;5.57;;;;;;;9.72;89.55;100320.91;5073164;28;20100;-65
2021/05/12 00:11:06;;;;;;;9.97;4.43;;;;;;;9.76;89.20;100323.22;5056592;28;20567;-65
2021/05/12 00:13:32;;;;;;;15.57;5.57;;;;;;;9.81;89.27;100316.41;5074111;28;20032;-65
2021/05/12 00:15:57;;;;;;;11.53;5.20;;;;;;;9.79;89.00;100322.91;5073203;28;20561;-65
2021/05/12 00:18:23;;;;;;;12.07;5.67;;;;;;;9.80;89.04;100324.56;5072944;28;20362;-65
2021/05/12 00:20:49;;;;;;;9.60;5.00;;;;;;;9.80;89.19;100313.91;5072935;28;20064;-65
2021/05/12 00:23:28;;;;;;;;;;;;;;;9.83;89.18;100305.56;5073350;28;20094;-65
2021/05/12 00:25:53;;;;;;;15.68;5.25;;;;;;;9.82;88.97;100296.72;5072993;28;19912;-65
2021/05/12 00:28:18;;;;;;;12.20;4.57;;;;;;;9.74;89.39;100286.09;5072590;28;20063;-65
2021/05/12 00:30:44;;;;;;;10.70;4.57;;;;;;;9.79;89.79;100288.25;5073040;28;20039;-65
2021/05/12 00:33:11;;;;;;;13.63;5.40;;;;;;;9.86;89.09;100305.25;5073617;28;20040;-65
2021/05/12 00:35:37;;;;;;;11.38;5.07;;;;;;;9.82;89.20;100307.41;5073816;28;20074;-65
2021/05/12 00:38:02;;;;;;;14.20;5.60;;;;;;;9.85;89.20;100306.22;5073542;28;20028;-65
2021/05/12 00:40:27;;;;;;;12.87;5.63;;;;;;;9.90;89.25;100303.88;5072061;28;20025;-71
2021/05/12 00:42:53;;;;;;;9.30;5.10;;;;;;;9.90;88.55;100302.06;5073500;28;20339;-71
2021/05/12 00:45:20;;;;;;;13.80;5.30;;;;;;;9.84;89.09;100305.41;5072648;28;20032;-71
2021/05/12 00:47:48;;;;;;;16.67;5.43;;;;;;;9.84;89.20;100320.56;5072388;28;20098;-71
2021/05/12 00:50:16;;;;;;;12.80;4.95;;;;;;;9.85;88.91;100316.88;5072529;28;20073;-71
2021/05/12 00:52:41;;;;;;;16.42;6.50;;;;;;;9.88;88.71;100325.41;5073555;28;20405;-71
2021/05/12 00:55:07;;;;;;;15.90;6.37;;;;;;;9.86;88.88;100319.41;5073382;28;20462;-71
2021/05/12 00:57:33;;;;;;;11.43;5.25;;;;;;;9.85;89.01;100316.88;5073146;28;20369;-71
2021/05/12 00:59:59;;;;;;;;;;;;;;;9.83;89.25;100314.41;5055977;28;20047;-71
2021/05/12 01:02:24;;;;;;;;;;;;;;;9.93;88.71;100322.22;5073763;28;19912;-71
2021/05/12 01:04:50;;;;;;;8.73;5.53;;;;;;;9.90;88.60;100325.22;5073323;28;19916;-71
2021/05/12 01:07:15;;;;;;;15.93;5.70;;;;;;;9.90;88.91;100319.88;5072290;28;20037;-71
2021/05/12 01:09:40;;;;;;;17.03;6.97;;;;;;;9.90;89.37;100326.06;5055138;28;20032;-65
2021/05/12 01:12:06;;;;;;;14.47;6.03;;;;;;;9.92;88.33;100324.03;5055275;28;20070;-65
2021/05/12 01:14:32;;;;;;;13.67;5.70;;;;;;;9.89;88.48;100324.38;5073057;28;20028;-65
2021/05/12 01:16:58;;;;;;;13.68;5.43;;;;;;;9.84;89.16;100317.91;5072192;28;20085;-65
2021/05/12 01:19:24;;;;;;;15.47;6.53;;;;;;;9.87;89.03;100317.56;5055042;28;20412;-65
2021/05/12 01:21:49;;;;;;;16.10;6.78;;;;;;;9.90;88.87;100314.53;5073019;28;20436;-65
2021/05/12 01:24:15;;;;;;;12.67;6.53;;;;;;;9.86;88.80;100307.91;5072678;28;20047;-65
2021/05/12 01:26:40;;;;;;;15.70;6.20;;;;;;;9.89;88.95;100315.56;5072953;28;20132;-65
2021/05/12 01:29:06;;;;;;;9.40;5.40;;;;;;;9.86;88.93;100310.56;5072409;28;20095;-65
2021/05/12 01:31:35;;;;;;;12.85;6.65;;;;;;;9.85;89.17;100311.56;5072759;28;20042;-65
2021/05/12 01:34:03;;;;;;;14.95;5.90;;;;;;;9.92;89.40;100307.22;5072716;28;20060;-71
2021/05/12 01:36:29;;;;;;;15.68;6.60;;;;;;;9.87;88.83;100309.56;5071757;28;20036;-71
2021/05/12 01:38:55;;;;;;;12.88;5.75;;;;;;;9.90;88.78;100298.53;5071171;28;20136;-71
2021/05/12 01:41:23;;;;;;;10.88;6.40;;;;;;;9.94;88.59;100299.88;5072480;28;20438;-71
2021/05/12 01:43:49;;;;;;;13.82;5.68;;;;;;;9.88;88.78;100304.06;5038188;28;20041;-71
2021/05/12 01:46:15;;;;;;;13.00;6.90;;;;;;;9.83;89.11;100297.56;5072437;28;20033;-71
2021/05/12 01:48:41;;;;;;;11.53;6.77;;;;;;;9.87;89.26;100291.72;5054557;28;20040;-71
2021/05/12 01:51:08;;;;;;;18.75;7.35;;;;;;;9.90;89.21;100279.88;5072244;28;20032;-71
2021/05/12 01:53:34;;;;;;;18.77;7.40;;;;;;;9.85;89.22;100276.91;5070338;28;20100;-71
2021/05/12 01:55:59;;;;;;;11.70;6.43;;;;;;;9.85;89.30;100271.56;5071163;28;20530;-71
2021/05/12 01:58:25;;;;;;;15.40;6.35;;;;;;;9.82;89.41;100263.91;5071811;28;20115;-71
2021/05/12 02:00:53;;;;;;;10.70;7.00;;;;;;;9.81;89.51;100256.91;5054568;28;20416;-71
2021/05/12 02:03:18;;;;;;;19.17;8.25;;;;;;;9.73;89.37;100255.91;5071234;28;20114;-70
2021/05/12 02:05:46;;;;;;;16.95;8.10;;;;;;;9.72;89.45;100267.59;5071095;28;20024;-71
2021/05/12 02:08:14;;;;;;;16.15;7.47;;;;;;;9.72;89.38;100270.25;5071529;28;20036;-71
2021/05/12 02:10:42;;;;;;;14.75;7.05;;;;;;;9.73;89.37;100277.25;5070915;28;20484;-71
2021/05/12 02:13:08;;;;;;;14.40;6.72;;;;;;;9.77;89.61;100280.41;5054223;28;20040;-71
2021/05/12 02:15:33;;;;;;;11.45;7.05;;;;;;;9.79;89.31;100286.41;5071790;28;20051;-71
2021/05/12 02:17:59;;;;;;;12.15;7.35;;;;;;;9.78;89.22;100298.06;5071607;28;20038;-71
2021/05/12 02:20:31;;;;;;;14.60;7.73;;;;;;;9.80;89.27;100293.41;5053938;28;20086;-71
2021/05/12 02:22:58;;;;;;;19.08;7.43;;;;;;;9.81;89.22;100302.22;5070719;28;20044;-71
2021/05/12 02:25:24;;;;;;;16.52;7.95;;;;;;;9.84;89.44;100300.06;5071532;28;20370;-71
2021/05/12 02:27:49;;;;;;;13.00;7.43;;;;;;;9.87;89.28;100317.56;5071372;28;20036;-71
2021/05/12 02:30:15;;;;;;;14.30;8.20;;;;;;;9.86;89.56;100318.56;5071405;28;20098;-71
2021/05/12 02:32:41;;;;;;;15.52;7.43;;;;;;;9.88;89.43;100324.53;5071608;28;20511;-71
2021/05/12 02:35:08;;;;;;;20.05;8.07;;;;;;;9.85;89.24;100316.88;5071373;28;20036;-71
2021/05/12 02:37:34;;;;;;;15.10;7.68;;;;;;;9.86;89.38;100323.91;5071296;28;20042;-70
2021/05/12 02:40:00;;;;;;;15.25;7.88;;;;;;;9.80;89.29;100309.38;5071343;28;20131;-71
2021/05/12 02:42:25;;;;;;;16.03;7.47;;;;;;;9.83;89.41;100321.56;5071376;28;20072;-71
2021/05/12 02:44:51;;;;;;;14.97;7.90;;;;;;;9.84;89.41;100315.22;5070275;28;20033;-70
2021/05/12 02:47:16;;;;;;;16.00;8.20;;;;;;;9.81;89.72;100316.41;5070534;28;20072;-71
2021/05/12 02:49:41;;;;;;;18.27;8.03;;;;;;;9.82;89.98;100311.91;5070939;28;20040;-70
2021/05/12 02:52:07;;;;;;;13.70;6.93;;;;;;;9.82;89.94;100310.06;5071295;28;20101;-71
2021/05/12 02:54:34;;;;;;;20.23;8.00;;;;;;;9.82;89.77;100309.22;5070434;28;20029;-71
2021/05/12 02:57:00;;;;;;;13.07;6.68;;;;;;;9.78;89.93;100305.22;5053669;28;20037;-71
2021/05/12 02:59:26;;;;;;;;;;;;;;;9.85;89.89;100306.22;5070297;28;20473;-71
2021/05/12 03:01:51;;;;;;;14.40;8.48;;;;;;;9.83;89.33;100311.75;5071054;28;19962;-71
2021/05/12 03:04:16;;;;;;;8.73;6.13;;;;;;;9.82;89.50;100311.91;5070856;28;20124;-71
2021/05/12 03:06:43;;;;;;;11.10;6.70;;;;;;;9.77;89.48;100315.06;5053482;28;20066;-71
2021/05/12 03:09:09;;;;;;;14.38;7.47;;;;;;;9.73;89.97;100308.41;5053076;28;20033;-71
2021/05/12 03:11:35;;;;;;;10.70;6.30;;;;;;;9.74;89.61;100310.09;5071020;28;20017;-71
2021/05/12 03:14:02;;;;;;;;;;;;;;;9.76;89.57;100307.22;5070519;28;20032;-71
2021/05/12 03:16:29;;;;;;;13.98;6.40;;;;;;;9.79;89.55;100306.91;5053310;28;20315;-71
2021/05/12 03:18:55;;;;;;;13.95;7.68;;;;;;;9.72;89.47;100317.41;5069767;28;20063;-71
2021/05/12 03:21:20;;;;;;;17.85;8.52;;;;;;;9.80;89.47;100319.22;5070834;28;20037;-71
2021/05/12 03:23:48;;;;;;;14.87;8.20;;;;;;;9.79;89.83;100317.56;5071031;28;20116;-65
2021/05/12 03:26:13;;;;;;;16.13;7.90;;;;;;;9.80;89.64;100317.38;5070879;28;20631;-65
2021/05/12 03:28:38;;;;;;;12.87;9.07;;;;;;;9.77;89.32;100306.25;5069721;28;20139;-65
2021/05/12 03:31:04;;;;;;;11.97;8.23;;;;;;;9.85;89.06;100306.22;5053237;28;20040;-65
2021/05/12 03:33:29;;;;;;;14.10;8.03;;;;;;;9.81;89.33;100304.88;5069823;28;20174;-65
2021/05/12 03:35:54;;;;;;;17.17;9.93;;;;;;;9.67;89.45;100309.09;5070934;28;20127;-65
2021/05/12 03:38:20;;;;;;;25.60;9.53;;;;;;;9.67;89.67;100298.44;5070369;28;20044;-65
2021/05/12 03:40:45;;;;;;;16.23;9.20;;;;;;;9.67;89.55;100304.59;5070683;28;20027;-65
2021/05/12 03:43:10;;;;;;;15.67;8.97;;;;;;;9.67;89.59;100301.09;5070767;28;20366;-65
2021/05/12 03:45:36;;;;;;;16.27;9.23;;;;;;;9.71;89.61;100305.88;5070701;28;20482;-65
2021/05/12 03:48:01;;;;;;;15.93;9.70;;;;;;;9.73;89.54;100306.56;5070328;28;20047;-65
2021/05/12 03:50:29;;;;;;;14.93;8.93;;;;;;;9.74;89.51;100315.41;5069839;28;20028;-64
2021/05/12 03:52:55;;;;;;;19.92;9.32;;;;;;;9.74;89.60;100320.75;5070665;28;20032;-64
2021/05/12 03:55:21;;;;;;;;;;;;;;;9.85;89.74;100327.56;5071198;28;20151;-64
2021/05/12 03:57:47;;;;;;;14.82;10.15;;;;;;;9.89;89.62;100331.56;5069448;28;19916;-64
2021/05/12 04:00:14;;;;;;;15.43;8.70;;;;;;;9.82;89.70;100334.06;5070448;28;20203;-64
2021/05/12 04:02:42;;;;;;;19.42;8.77;;;;;;;9.88;89.81;100322.72;5070507;28;20068;-64
2021/05/12 04:05:10;;;;;;;16.77;9.07;;;;;;;9.84;89.38;100318.72;5069709;28;20368;-64
2021/05/12 04:07:35;;;;;;;18.10;10.20;;;;;;;9.80;89.58;100312.06;5061039;28;20033;-64
2021/05/12 04:10:01;;;;;;;13.23;9.27;;;;;;;9.88;89.06;100311.22;5070514;28;20119;-64
2021/05/12 04:12:26;;;;;;;19.05;9.27;;;;;;;9.79;89.24;100313.06;5052820;28;20047;-64
2021/05/12 04:14:52;;;;;;;17.63;10.65;;;;;;;9.83;89.40;100309.06;5070447;28;20063;-64
2021/05/12 04:17:18;;;;;;;18.93;10.53;;;;;;;9.82;89.52;100314.56;5073465;28;20037;-64
2021/05/12 04:19:43;;;;;;;15.17;8.73;;;;;;;9.85;89.60;100314.22;5073667;28;20044;-64
2021/05/12 04:22:09;;;;;;;18.30;9.17;;;;;;;9.87;89.45;100321.03;5074093;28;20035;-64
2021/05/12 04:24:34;;;;;;;20.57;10.37;;;;;;;9.84;89.11;100320.56;5073861;28;20566;-64
2021/05/12 04:26:59;;;;;;;17.50;10.10;;;;;;;9.86;89.21;100326.56;5074056;28;20103;-64
2021/05/12 04:29:25;;;;;;;19.43;11.00;;;;;;;9.83;89.26;100329.56;5055753;28;20305;-64
2021/05/12 04:31:51;;;;;;;16.57;9.33;;;;;;;9.97;89.08;100320.88;5073652;28;20040;-64
2021/05/12 04:34:16;;;;;;;16.55;8.20;;;;;;;10.09;88.95;100324.88;5073854;28;20051;-64
2021/05/12 04:36:41;;;;;;;15.70;9.97;;;;;;;10.09;88.34;100324.00;5073902;28;20028;-64
2021/05/12 04:39:07;;;;;;;15.77;8.97;;;;;;;10.22;88.06;100323.50;5072483;28;20752;-65
2021/05/12 04:41:33;;;;;;;18.87;10.07;;;;;;;10.21;87.13;100314.69;5056044;28;20362;-64
2021/05/12 04:43:59;;;;;;;22.98;12.05;;;;;;;10.02;87.60;100310.56;5073527;28;20460;-64
2021/05/12 04:46:25;;;;;;;18.10;11.57;;;;;;;9.96;88.11;100313.88;5072568;28;20020;-64
2021/05/12 04:48:52;;;;;;;18.98;11.30;;;;;;;9.98;88.30;100321.72;5073252;28;20896;-64
2021/05/12 04:51:19;;;;;;;17.85;10.65;;;;;;;9.89;88.27;100327.06;5073398;28;20036;-64
2021/05/12 04:53:44;;;;;;;;;;;;;;;9.98;88.30;100333.22;5073286;28;20028;-64
2021/05/12 04:56:09;;;;;;;21.75;11.23;;;;;;;9.89;88.07;100334.22;5071210;28;20182;-64
2021/05/12 04:58:35;;;;;;;23.37;11.53;;;;;;;9.92;88.31;100333.88;5071252;28;20907;-64
2021/05/12 05:01:00;;;;;;;14.30;8.40;;;;;;;10.01;88.21;100340.88;5071493;28;20560;-64
2021/05/12 05:03:26;;;;;;;15.43;10.80;;;;;;;10.02;88.14;100347.88;5071664;28;20427;-65
2021/05/12 05:05:51;;;;;;;18.50;11.77;;;;;;;10.07;88.08;100348.22;5071646;28;20036;-64
2021/05/12 05:08:16;;;;;;;18.30;10.70;;;;;;;10.11;88.30;100359.34;5070121;28;20523;-64
2021/05/12 05:10:42;;;;;;;21.63;10.67;;;;;;;10.03;88.19;100360.22;5072575;28;20462;-64
2021/05/12 05:13:07;;;;;;;16.07;10.90;;;;;;;10.17;87.85;100365.88;5071914;28;20086;-64
2021/05/12 05:15:34;;;;;;;20.63;11.37;;;;;;;10.10;87.82;100369.19;5055030;28;20032;-64
2021/05/12 05:18:00;;;;;;;19.63;9.77;;;;;;;10.04;88.08;100366.38;5055391;28;20275;-64
2021/05/12 05:20:28;;;;;;;14.17;10.17;;;;;;;10.00;87.67;100376.56;5072223;28;20145;-66
2021/05/12 05:22:53;;;;;;;15.20;9.95;;;;;;;10.07;88.00;100371.38;5038141;28;20028;-64
2021/05/12 05:25:19;;;;;;;13.70;8.30;;;;;;;10.09;87.85;100378.22;5055234;28;20028;-64
2021/05/12 05:27:44;;;;;;;18.27;9.20;;;;;;;10.15;87.76;100382.84;5053797;28;20029;-64
2021/05/12 05:30:11;;;;;;;16.07;9.63;;;;;;;10.14;87.61;100383.88;5054845;28;20532;-64
2021/05/12 05:33:02;;;;;;;16.30;8.07;;;;;;;10.11;87.64;100392.22;5071942;28;20055;-64
2021/05/12 05:35:46;;;;;;;19.08;9.35;;;;;;;10.15;87.45;100398.88;5072629;28;20118;-64
2021/05/12 05:38:30;;;;;;;18.10;8.52;;;;;;;10.08;87.24;100407.72;5071789;28;20051;-64
2021/05/12 05:41:14;;;;;;;15.32;9.55;;;;;;;10.21;87.52;100407.19;5057669;28;20563;-64
2021/05/12 05:43:58;;;;;;;13.18;7.85;;;;;;;10.27;86.88;100412.69;5072585;28;20075;-64
2021/05/12 05:46:42;;;;;;;17.15;8.80;;;;;;;10.30;86.99;100401.72;5072401;28;20400;-64
2021/05/12 05:49:37;;;;;;;13.82;7.70;;;;;;;10.22;86.75;100403.53;5022589;28;20041;-64
2021/05/12 05:52:21;;;;;;;16.05;7.95;;;;;;;10.32;86.20;100393.53;5071949;28;20063;-64
2021/05/12 05:55:06;;;;;;;12.88;8.05;;;;;;;10.49;86.33;100395.19;5057466;28;20051;-64
2021/05/12 05:57:51;;;;;;;12.18;7.07;;;;;;;10.59;85.34;100396.84;5072107;28;20432;-64
2021/05/12 06:00:35;;;;;;;11.38;7.50;;;;;;;10.55;85.16;100388.31;5072040;28;20048;-64
2021/05/12 06:03:01;;;;;;;11.60;7.43;;;;;;;10.55;84.50;100383.81;5072137;28;20060;-64
2021/05/12 06:05:47;;;;;;;13.25;7.72;;;;;;;10.62;84.49;100394.63;5056970;28;20090;-64
2021/05/12 06:08:31;;;;;;;11.27;7.65;;;;;;;10.67;84.65;100397.63;5071735;28;20575;-64
2021/05/12 06:11:15;;;;;;;13.93;7.18;;;;;;;10.71;83.67;100395.47;5071859;28;20146;-64
2021/05/12 06:14:00;;;;;;;11.38;5.53;;;;;;;10.89;84.11;100400.56;5071836;28;20066;-64
2021/05/12 06:16:43;;;;;;;10.13;6.30;;;;;;;10.98;84.45;100397.69;5071865;28;20055;-64
2021/05/12 06:19:27;;;;;;;11.30;5.43;;;;;;;10.94;83.82;100404.38;5071844;28;20051;-64
2021/05/12 06:22:11;;;;;;;13.73;6.47;;;;;;;10.91;83.86;100412.75;5071887;28;20496;-64
2021/05/12 06:24:55;;;;;;;11.57;6.07;;;;;;;11.21;84.29;100418.28;5071892;28;20515;-64
2021/05/12 06:27:40;;;;;;;10.55;5.22;;;;;;;11.20;81.95;100428.13;5070881;28;20048;-64
2021/05/12 06:30:24;;;;;;;14.47;6.17;;;;;;;11.18;83.39;100426.66;5070938;28;20099;-64
2021/05/12 06:33:08;;;;;;;9.68;4.82;;;;;;;11.22;82.86;100436.00;5071965;28;20055;-64
2021/05/12 06:35:52;;;;;;;8.50;5.57;;;;;;;11.39;82.72;100440.22;5071604;28;20124;-64
2021/05/12 06:38:36;;;;;;;8.13;5.32;;;;;;;11.56;82.03;100440.16;5070837;28;20098;-65
2021/05/12 06:41:02;;;;;;;7.57;5.28;;;;;;;11.84;82.09;100445.81;5070322;28;20040;-65
2021/05/12 06:43:28;;;;;;;13.20;5.47;;;;;;;11.92;80.85;100448.47;5071360;28;20107;-65
2021/05/12 06:45:58;;;;;;;8.00;5.05;;;;;;;11.83;80.15;100462.88;5054020;28;20130;-65
2021/05/12 06:48:23;;;;;;;9.23;4.95;;;;;;;11.55;81.74;100467.91;5071060;28;20115;-65
2021/05/12 06:50:49;;;;;;;9.90;5.30;;;;;;;11.62;81.52;100471.53;5070401;28;20059;-65
2021/05/12 06:53:33;;;;;;;8.82;5.22;;;;;;;11.65;81.54;100481.03;5071314;28;20037;-65
2021/05/12 06:55:59;;;;;;;10.80;5.65;;;;;;;11.49;82.10;100476.63;5071364;28;20052;-65
2021/05/12 06:58:25;;;;;;;15.65;6.53;;;;;;;11.43;82.17;100477.34;5070858;28;20136;-65
2021/05/12 07:00:51;;;;;;;12.50;5.78;;;;;;;11.48;82.23;100480.31;5070134;28;20112;-65
2021/05/12 07:03:23;;;;;;;10.60;5.78;;;;;;;11.55;81.17;100486.63;5071251;28;20071;-65
2021/05/12 07:05:52;;;;;;;15.07;5.57;;;;;;;11.58;81.98;100480.91;5053441;28;20076;-65
2021/05/12 07:08:18;;;;;;;10.20;5.22;;;;;;;11.60;81.82;100476.22;5069878;28;20028;-65
2021/05/12 07:10:44;;;;;;;5.88;4.28;;;;;;;11.55;81.83;100483.94;5070061;28;20040;-65
2021/05/12 07:13:09;;;;;;;7.63;5.43;;;;;;;11.42;82.44;100487.16;5053448;28;20032;-65
2021/05/12 07:15:34;;;;;;;7.00;4.60;;;;;;;11.34;82.57;100485.38;5071013;28;20036;-64
2021/05/12 07:18:00;;;;;;;8.53;4.60;;;;;;;11.27;82.97;100488.91;5070810;28;20464;-64
2021/05/12 07:20:25;;;;;;;7.13;4.87;;;;;;;11.25;84.05;100496.28;5086128;28;20089;-64
2021/05/12 07:22:51;;;;;;;7.97;4.40;;;;;;;11.42;83.67;100492.50;5077526;28;20613;-71
2021/05/12 07:25:16;;;;;;;7.60;5.07;;;;;;;11.42;83.61;100492.50;5111572;28;20464;-72
2021/05/12 07:27:42;;;;;;;11.70;5.50;;;;;;;11.40;83.60;100490.03;5106064;28;20111;-71
2021/05/12 07:30:09;;;;;;;14.02;5.13;;;;;;;11.28;83.07;100486.06;5091136;28;20365;-71
2021/05/12 07:32:34;;;;;;;7.90;4.75;;;;;;;11.25;82.11;100493.59;5072523;28;20089;-71
2021/05/12 07:35:00;;;;;;;8.30;5.67;;;;;;;11.41;83.12;100494.34;5056549;28;20036;-71
2021/05/12 07:37:25;;;;;;;9.02;4.85;;;;;;;11.44;82.56;100498.53;5059548;28;20039;-72
2021/05/12 07:39:52;;;;;;;7.97;4.30;;;;;;;11.55;82.75;100494.63;5090733;28;20134;-72
2021/05/12 07:42:19;;;;;;;7.22;4.28;;;;;;;11.65;82.55;100497.09;5071637;28;20060;-72
2021/05/12 07:44:46;;;;;;;8.88;3.72;;;;;;;11.99;81.35;100497.59;5069200;28;20040;-71
2021/05/12 07:47:11;;;;;;;9.80;3.80;;;;;;;12.22;80.06;100491.38;5092850;28;20051;-72
2021/05/12 07:49:40;;;;;;;4.60;3.87;;;;;;;12.20;78.60;100496.09;5093610;28;20080;-72
2021/05/12 07:52:13;;;;;;;6.82;3.95;;;;;;;12.32;77.99;100499.19;5114309;28;20043;-72
2021/05/12 07:54:48;;;;;;;5.18;3.35;;;;;;;12.68;77.75;100505.53;5067235;28;20033;-71
2021/05/12 07:57:14;;;;;;;6.28;3.45;;;;;;;13.52;76.32;100497.25;5074572;28;20124;-71
2021/05/12 07:59:40;;;;;;;5.18;3.15;;;;;;;13.64;74.15;100494.09;5074120;28;20390;-72
2021/05/12 08:02:05;;;;;;;7.15;3.65;;;;;;;13.37;73.25;100499.13;5074574;28;20501;-72
2021/05/12 08:04:32;;;;;;;6.33;3.30;;;;;;;13.59;74.21;100491.97;5114980;28;20114;-72
2021/05/12 08:06:58;;;;;;;;;;;;;;;14.18;72.18;100492.78;5080546;28;20043;-71
2021/05/12 08:09:24;;;;;;;6.70;3.45;;;;;;;14.27;70.37;100491.63;5096831;28;19911;-71
2021/05/12 08:11:49;;;;;;;6.82;4.05;;;;;;;14.49;69.24;100498.66;5114795;28;20054;-71
2021/05/12 08:14:15;;;;;;;7.57;3.63;;;;;;;14.57;69.11;100503.09;5097066;28;20039;-65
2021/05/12 08:16:40;;;;;;;7.43;3.23;;;;;;;14.71;67.71;100499.47;5114795;28;20082;-65
2021/05/12 08:19:06;;;;;;;5.07;3.50;;;;;;;14.82;69.22;100502.63;5114306;28;20380;-65
2021/05/12 08:21:33;;;;;;;13.02;3.83;;;;;;;14.29;70.62;100501.16;5086883;28;20127;-65
2021/05/12 08:23:58;;;;;;;14.45;4.20;;;;;;;14.19;71.31;100502.50;5114738;28;20042;-65
2021/05/12 08:26:24;;;;;;;12.40;5.40;;;;;;;14.28;72.28;100493.28;5096763;28;20035;-65
2021/05/12 08:28:50;;;;;;;7.93;3.88;;;;;;;14.78;70.85;100505.72;5096326;28;20027;-65
2021/05/12 08:31:15;;;;;;;9.57;4.53;;;;;;;14.93;69.68;100512.84;5085987;28;20070;-65
2021/05/12 08:33:42;;;;;;;7.22;4.18;;;;;;;15.02;67.96;100505.47;5093988;28;20052;-66
2021/05/12 08:36:08;;;;;;;9.98;4.13;;;;;;;15.46;66.99;100515.84;5076455;28;20472;-65
2021/05/12 08:38:34;;;;;;;10.45;4.68;;;;;;;15.29;67.26;100512.66;5059169;28;20469;-65
2021/05/12 08:41:02;;;;;;;11.47;4.30;;;;;;;15.35;67.91;100513.72;5076276;28;20067;-65
2021/05/12 08:43:29;;;;;;;10.10;4.75;;;;;;;15.45;66.48;100508.78;5093937;28;20064;-65
2021/05/12 08:45:55;;;;;;;8.30;4.57;;;;;;;15.48;66.51;100507.56;5076092;28;20469;-65
2021/05/12 08:48:23;;;;;;;9.13;4.97;;;;;;;15.55;65.14;100506.56;5075717;28;20740;-65
2021/05/12 08:50:50;;;;;;;7.28;4.13;;;;;;;15.88;64.68;100505.88;5059286;28;20534;-65
2021/05/12 08:53:16;;;;;;;12.10;5.10;;;;;;;16.23;63.16;100503.03;5092744;28;20110;-65
2021/05/12 08:55:42;;;;;;;9.00;5.57;;;;;;;16.22;64.67;100514.84;5075967;28;20043;-65
2021/05/12 08:58:07;;;;;;;9.50;5.00;;;;;;;16.49;65.16;100509.50;5075690;28;20051;-65
2021/05/12 09:00:33;;;;;;;12.23;5.30;;;;;;;16.10;61.85;100501.16;5093132;28;20043;-65
2021/05/12 09:03:00;;;;;;;12.95;5.30;;;;;;;15.92;65.03;100501.75;5075499;28;20044;-65
2021/05/12 09:05:27;;;;;;;11.98;5.25;;;;;;;15.75;64.25;100505.81;5093610;28;20056;-65
2021/05/12 09:07:53;;;;;;;9.13;4.82;;;;;;;15.59;66.33;100506.97;5093145;28;20127;-65
2021/05/12 09:10:18;;;;;;;11.70;4.68;;;;;;;15.53;65.68;100515.88;5093556;28;20115;-65
2021/05/12 09:12:44;;;;;;;7.83;4.53;;;;;;;15.78;63.06;100524.25;5075459;28;20123;-65
2021/05/12 09:15:12;;;;;;;14.55;5.40;;;;;;;15.63;63.06;100525.22;5092240;28;20040;-65
2021/05/12 09:17:39;;;;;;;9.75;3.90;;;;;;;15.20;63.90;100532.69;5092989;28;20034;-65
2021/05/12 09:20:25;;;;;;;9.52;4.35;;;;;;;15.07;65.91;100532.59;5093204;28;20032;-65
2021/05/12 09:22:59;;;;;;;12.70;5.30;;;;;;;15.52;64.62;100524.94;5093177;28;20607;-65
2021/05/12 09:25:29;;;;;;;10.32;4.45;;;;;;;15.58;63.62;100535.75;5093221;28;20050;-65
2021/05/12 09:28:18;;;;;;;8.98;4.50;;;;;;;15.26;64.61;100531.03;5092723;28;20039;-65
2021/05/12 09:30:47;;;;;;;9.00;4.57;;;;;;;15.16;65.75;100532.22;5066182;28;20036;-65
2021/05/12 09:33:27;;;;;;;10.90;4.68;;;;;;;14.92;65.77;100533.53;5093036;28;20036;-65
2021/05/12 09:35:53;;;;;;;12.75;4.75;;;;;;;15.12;65.18;100530.94;5075052;28;20422;-65
2021/05/12 09:38:24;;;;;;;15.40;5.53;;;;;;;15.73;64.80;100542.88;5091641;28;20044;-65
2021/05/12 09:41:02;;;;;;;14.00;5.50;;;;;;;15.28;64.01;100526.28;5092729;28;20035;-65
2021/05/12 09:43:29;;;;;;;14.00;5.38;;;;;;;15.17;65.48;100527.66;5092681;28;20490;-65
2021/05/12 09:46:23;;;;;;;14.52;5.95;;;;;;;15.32;65.18;100527.56;5075023;28;20063;-65
2021/05/12 09:48:58;;;;;;;10.02;5.15;;;;;;;15.56;64.86;100537.81;5092409;28;20036;-65
2021/05/12 09:51:23;;;;;;;17.60;5.95;;;;;;;15.17;66.15;100539.28;5092644;28;20028;-65
2021/05/12 09:54:17;;;;;;;15.27;5.87;;;;;;;15.33;65.96;100546.16;5074927;28;20059;-65
2021/05/12 09:56:52;;;;;;;13.00;5.95;;;;;;;15.00;65.96;100537.91;5092540;28;20506;-65
2021/05/12 09:59:29;;;;;;;13.85;5.60;;;;;;;15.29;66.15;100530.63;5092208;28;20044;-65
2021/05/12 10:01:56;;;;;;;10.75;5.45;;;;;;;15.41;66.66;100534.44;5092456;28;20043;-65
2021/05/12 10:04:23;;;;;;;10.85;5.55;;;;;;;15.68;65.46;100532.69;5074518;28;20036;-65
2021/05/12 10:06:50;;;;;;;13.73;5.78;;;;;;;15.98;63.85;100541.31;5074596;28;20035;-65
2021/05/12 10:09:27;;;;;;;12.80;6.18;;;;;;;15.09;65.85;100534.03;5091830;28;20043;-65
2021/05/12 10:12:03;;;;;;;10.35;5.10;;;;;;;15.48;65.02;100529.09;5074417;28;20043;-65
2021/05/12 10:14:30;;;;;;;23.08;5.65;;;;;;;15.74;64.63;100533.78;5091437;28;20063;-65
2021/05/12 10:16:56;;;;;;;11.82;5.45;;;;;;;16.29;63.81;100536.41;5092095;28;20031;-65
2021/05/12 10:19:22;;;;;;;;;;;;;;;16.22;61.06;100537.25;5092258;28;20372;-65
2021/05/12 10:21:47;;;;;;;;;;;;;;;16.56;63.40;100537.25;5074588;28;19937;-65
2021/05/12 10:24:13;;;;;;;7.77;4.90;;;;;;;16.04;62.52;100540.50;5092013;28;19965;-65
2021/05/12 10:26:41;;;;;;;8.88;4.78;;;;;;;15.92;62.17;100542.13;5057517;28;20047;-65
2021/05/12 10:29:08;;;;;;;14.30;4.50;;;;;;;15.63;63.06;100541.34;5091639;28;20035;-65
2021/05/12 10:31:33;;;;;;;;;;;;;;;16.03;63.23;100533.44;5092338;28;20035;-65
2021/05/12 10:33:58;;;;;;;;;;;;;;;16.66;61.93;100540.38;5074570;28;19912;-65
2021/05/12 10:36:24;;;;;;;15.43;5.07;;;;;;;16.51;59.95;100542.44;5090836;28;19912;-65
2021/05/12 10:38:56;;;;;;;10.52;3.78;;;;;;;16.43;60.00;100549.66;5091488;28;20039;-65
2021/05/12 10:41:43;;;;;;;12.80;3.97;;;;;;;16.33;59.49;100543.03;5091711;28;20036;-65
2021/05/12 10:44:17;;;;;;;13.75;4.43;;;;;;;16.21;59.22;100545.50;5073721;28;20473;-65
2021/05/12 10:47:03;;;;;;;8.90;3.60;;;;;;;16.15;58.63;100536.38;5084305;28;20028;-65
2021/05/12 10:49:28;;;;;;;11.02;3.88;;;;;;;16.01;58.85;100545.44;5091389;28;20093;-65
2021/05/12 10:51:54;;;;;;;12.55;3.67;;;;;;;16.63;60.93;100538.09;5073870;28;20040;-65
2021/05/12 10:54:44;;;;;;;9.43;3.53;;;;;;;16.71;57.62;100543.25;5091536;28;20112;-65
2021/05/12 10:57:30;;;;;;;8.60;3.35;;;;;;;16.59;57.07;100534.16;5091382;28;20036;-65
2021/05/12 10:59:55;;;;;;;;;;;;;;;16.82;59.00;100539.97;5091594;28;20780;-65
2021/05/12 11:02:41;;;;;;;;;;;;;;;16.93;57.35;100543.91;5091926;28;19920;-65
2021/05/12 11:05:06;;;;;;;10.38;2.75;;;;;;;16.68;56.77;100536.41;5090352;28;20269;-65
2021/05/12 11:07:32;;;;;;;6.93;2.90;;;;;;;16.48;56.82;100538.28;5091051;28;20028;-65
2021/05/12 11:09:57;;;;;;;10.43;2.87;;;;;;;16.45;57.85;100547.59;5091338;28;20074;-65
2021/05/12 11:12:32;;;;;;;11.57;2.93;;;;;;;16.83;56.58;100548.88;5091347;28;20044;-65
2021/05/12 11:15:00;;;;;;;9.57;2.65;;;;;;;16.96;57.57;100548.06;5073344;28;20031;-65
2021/05/12 11:17:47;;;;;;;8.73;3.00;;;;;;;16.61;59.42;100557.16;5073494;28;20678;-65
2021/05/12 11:20:20;;;;;;;11.48;3.63;;;;;;;16.42;57.53;100552.59;5090954;28;20032;-65
2021/05/12 11:22:47;;;;;;;8.27;3.90;;;;;;;16.23;55.65;100563.13;5091161;28;20032;-65
2021/05/12 11:25:16;;;;;;;11.50;3.05;;;;;;;15.93;56.67;100554.56;5092992;28;20070;-65
2021/05/12 11:33:26;;;;;;;10.13;2.50;;;;;;;16.57;56.27;100561.28;5095268;28;20036;-65
2021/05/12 11:35:59;;;;;;;7.93;2.75;;;;;;;16.44;56.56;100559.44;5094257;28;20040;-65
2021/05/12 11:38:25;;;;;;;12.20;3.78;;;;;;;16.67;57.33;100550.13;5077075;28;20416;-65
2021/05/12 11:41:06;;;;;;;7.93;2.97;;;;;;;16.81;55.55;100549.13;5095139;28;20032;-65